Time;durP1;ratioP1;P1;durP2;ratioP2;P2;SDS_P1;SDS_P2;PMS_P1;PMS_P2;Temp;Humidity;BMP_temperature;BMP_pressure;BME280_temperature;BME280_humidity;BME280_pressure;Samples;Min_cycle;Max_cycle;Signal;HPM_P1;HPM_P2
2021/04/22 00:06:01;;;;;;;;;75.25;58.25;;;;;;;;8752981;40;10530;-55
2021/04/22 00:12:06;;;;;;;;;71.50;58.75;;;;;;;;8753297;40;10563;-56
2021/04/22 00:18:10;;;;;;;;;72.00;57.75;;;;;;;;8753314;40;10537;-55
2021/04/22 00:24:12;;;;;;;;;75.00;57.25;;;;;;;;8747061;40;10511;-57
2021/04/22 00:30:17;;;;;;;;;69.50;56.25;;;;;;;;8759279;40;10534;-54
2021/04/22 00:36:18;;;;;;;;;65.00;55.75;;;;;;;;8776182;40;10880;-56
2021/04/22 00:42:19;;;;;;;;;60.25;49.00;;;;;;;;8777374;40;10451;-55
2021/04/22 00:48:24;;;;;;;;;74.00;60.50;;;;;;;;8776077;40;10593;-56
2021/04/22 00:54:39;;;;;;;;;68.50;55.50;;;;;;;;8775963;40;10431;-56
2021/04/22 01:00:43;;;;;;;;;75.50;58.00;;;;;;;;8766010;40;10682;-57
2021/04/22 01:06:47;;;;;;;;;67.50;56.25;;;;;;;;8775504;40;10552;-55
2021/04/22 01:12:49;;;;;;;;;71.75;57.00;;;;;;;;8776381;40;10575;-56
2021/04/22 01:18:50;;;;;;;;;71.50;56.00;;;;;;;;8766303;40;10552;-55
2021/04/22 01:24:53;;;;;;;;;68.25;56.00;;;;;;;;8775726;40;10382;-56
2021/04/22 01:30:56;;;;;;;;;71.25;58.75;;;;;;;;8776024;40;10458;-54
2021/04/22 01:36:57;;;;;;;;;68.75;56.75;;;;;;;;8775008;40;10483;-55
2021/04/22 01:42:59;;;;;;;;;72.25;57.25;;;;;;;;8775364;40;10479;-54
2021/04/22 01:49:00;;;;;;;;;74.00;59.00;;;;;;;;8774967;40;11123;-55
2021/04/22 01:55:04;;;;;;;;;70.75;56.75;;;;;;;;8775850;40;10401;-53
2021/04/22 02:01:06;;;;;;;;;78.75;61.50;;;;;;;;8774799;40;10472;-54
2021/04/22 02:07:08;;;;;;;;;77.50;61.00;;;;;;;;8773981;40;10550;-57
2021/04/22 02:13:11;;;;;;;;;59.25;44.25;;;;;;;;8776071;40;10479;-55
2021/04/22 02:19:13;;;;;;;;;77.50;60.50;;;;;;;;8777277;40;10477;-55
2021/04/22 02:25:18;;;;;;;;;65.25;53.50;;;;;;;;8779576;40;10421;-55
2021/04/22 02:31:19;;;;;;;;;75.00;60.25;;;;;;;;8777795;40;10483;-56
2021/04/22 02:37:21;;;;;;;;;75.25;59.50;;;;;;;;8778277;40;10496;-55
2021/04/22 02:43:22;;;;;;;;;66.25;55.00;;;;;;;;8779036;40;11068;-56
2021/04/22 02:49:27;;;;;;;;;77.75;62.00;;;;;;;;8779476;40;10619;-54
2021/04/22 02:55:29;;;;;;;;;70.00;58.25;;;;;;;;8779037;40;10450;-56
2021/04/22 03:01:50;;;;;;;;;75.75;60.25;;;;;;;;8777804;40;10434;-54
2021/04/22 03:07:51;;;;;;;;;74.25;61.25;;;;;;;;8777476;40;10411;-54
2021/04/22 03:13:54;;;;;;;;;76.00;60.75;;;;;;;;8778309;40;10455;-56
2021/04/22 03:19:55;;;;;;;;;71.75;59.00;;;;;;;;8778455;40;10472;-55
2021/04/22 03:25:57;;;;;;;;;69.00;53.75;;;;;;;;8777564;40;10725;-55
2021/04/22 03:31:58;;;;;;;;;74.50;58.75;;;;;;;;8777287;40;11488;-53
2021/04/22 03:38:00;;;;;;;;;74.25;60.25;;;;;;;;8777438;40;11031;-55
2021/04/22 03:44:02;;;;;;;;;73.00;59.00;;;;;;;;8777571;40;10554;-55
2021/04/22 03:50:08;;;;;;;;;75.75;59.75;;;;;;;;8776915;40;10605;-56
2021/04/22 03:56:10;;;;;;;;;81.75;63.00;;;;;;;;8778237;40;10464;-56
2021/04/22 04:02:11;;;;;;;;;82.00;62.75;;;;;;;;9813228;23;10471;-52
2021/04/22 04:08:13;;;;;;;;;71.00;59.00;;;;;;;;8812403;40;10403;-52
2021/04/22 04:14:14;;;;;;;;;71.50;60.50;;;;;;;;8814035;40;10468;-53
2021/04/22 04:20:17;;;;;;;;;73.50;59.50;;;;;;;;8817629;40;11205;-53
2021/04/22 04:26:18;;;;;;;;;79.25;60.75;;;;;;;;8802304;40;10467;-50
2021/04/22 04:32:20;;;;;;;;;77.25;61.25;;;;;;;;8803577;40;10517;-52
2021/04/22 04:38:23;;;;;;;;;81.25;63.75;;;;;;;;8809136;40;10423;-54
2021/04/22 04:44:24;;;;;;;;;68.25;54.00;;;;;;;;8827476;40;10517;-53
2021/04/22 04:50:26;;;;;;;;;77.50;59.25;;;;;;;;8827166;40;10467;-54
2021/04/22 04:56:27;;;;;;;;;77.25;60.00;;;;;;;;8826522;40;10450;-50
2021/04/22 05:02:28;;;;;;;;;72.25;57.25;;;;;;;;8826321;40;10398;-53
2021/04/22 05:08:30;;;;;;;;;70.25;57.25;;;;;;;;8824696;40;10473;-54
2021/04/22 05:14:31;;;;;;;;;70.00;57.00;;;;;;;;8811023;40;10545;-55
2021/04/22 05:20:33;;;;;;;;;83.00;66.25;;;;;;;;8791370;40;10535;-53
2021/04/22 05:26:34;;;;;;;;;73.75;59.25;;;;;;;;8798738;40;10582;-55
2021/04/22 05:32:36;;;;;;;;;68.00;56.25;;;;;;;;8799224;40;10630;-52
2021/04/22 05:38:38;;;;;;;;;68.75;55.50;;;;;;;;8799987;40;10496;-54
2021/04/22 05:44:41;;;;;;;;;65.75;54.50;;;;;;;;8798542;40;10511;-55
2021/04/22 05:50:43;;;;;;;;;63.50;52.50;;;;;;;;8800514;40;10608;-55
2021/04/22 05:56:45;;;;;;;;;68.00;54.75;;;;;;;;8797968;40;10575;-52
2021/04/22 06:02:47;;;;;;;;;61.75;51.00;;;;;;;;8790039;40;10441;-55
2021/04/22 06:08:48;;;;;;;;;51.00;43.50;;;;;;;;8803272;40;10504;-54
2021/04/22 06:14:51;;;;;;;;;51.50;42.25;;;;;;;;8809677;40;10617;-55
2021/04/22 06:20:52;;;;;;;;;51.25;44.00;;;;;;;;8809317;40;10520;-53
2021/04/22 06:26:58;;;;;;;;;63.50;52.00;;;;;;;;8803833;40;10566;-53
2021/04/22 06:33:02;;;;;;;;;82.00;64.75;;;;;;;;8802043;40;10488;-52
2021/04/22 06:39:05;;;;;;;;;57.50;46.50;;;;;;;;8781373;40;10483;-55
2021/04/22 06:45:09;;;;;;;;;55.50;46.50;;;;;;;;8780165;40;10465;-55
2021/04/22 06:51:11;;;;;;;;;49.00;40.00;;;;;;;;8796367;40;10458;-54
2021/04/22 06:57:14;;;;;;;;;54.25;45.00;;;;;;;;8804032;40;10517;-56
2021/04/22 07:03:15;;;;;;;;;57.25;47.50;;;;;;;;8793722;40;10529;-55
2021/04/22 07:09:18;;;;;;;;;46.50;38.25;;;;;;;;8792870;40;10769;-55
2021/04/22 07:15:19;;;;;;;;;43.00;39.25;;;;;;;;8800279;40;10523;-57
2021/04/22 07:21:23;;;;;;;;;44.50;38.00;;;;;;;;8803701;40;10481;-56
2021/04/22 07:27:27;;;;;;;;;40.33;36.33;;;;;;;;8782208;40;9983;-56
2021/04/22 07:33:30;;;;;;;;;46.75;39.50;;;;;;;;8787727;40;10513;-58
2021/04/22 07:39:33;;;;;;;;;36.67;32.33;;;;;;;;8791233;40;10030;-57
2021/04/22 07:45:37;;;;;;;;;41.33;36.00;;;;;;;;8807463;40;9973;-58
2021/04/22 07:51:40;;;;;;;;;47.33;40.33;;;;;;;;8808167;40;9934;-55
2021/04/22 07:57:42;;;;;;;;;40.00;37.67;;;;;;;;8803643;40;9874;-57
2021/04/22 08:03:44;;;;;;;;;43.67;39.00;;;;;;;;8788906;40;9968;-58
2021/04/22 08:09:47;;;;;;;;;46.67;40.33;;;;;;;;8806660;40;10065;-58
2021/04/22 08:15:52;;;;;;;;;46.00;40.33;;;;;;;;8791917;40;9968;-58
2021/04/22 08:21:53;;;;;;;;;46.67;40.67;;;;;;;;8803857;40;10194;-59
2021/04/22 08:27:56;;;;;;;;;30.33;29.67;;;;;;;;8785546;40;9986;-56
2021/04/22 08:34:02;;;;;;;;;31.00;29.67;;;;;;;;8797463;40;10018;-55
2021/04/22 08:40:07;;;;;;;;;35.67;34.67;;;;;;;;8778299;40;10031;-56
2021/04/22 08:46:09;;;;;;;;;32.67;29.33;;;;;;;;8778796;40;9999;-58
2021/04/22 08:52:11;;;;;;;;;34.67;33.33;;;;;;;;8784466;40;9998;-58
2021/04/22 08:58:13;;;;;;;;;34.67;31.67;;;;;;;;8778476;40;9972;-57
2021/04/22 09:04:15;;;;;;;;;34.33;29.67;;;;;;;;8786827;40;10160;-57
2021/04/22 09:10:19;;;;;;;;;35.00;32.33;;;;;;;;8789464;40;10195;-56
2021/04/22 09:16:23;;;;;;;;;34.67;30.00;;;;;;;;8804659;40;10014;-55
2021/04/22 09:22:43;;;;;;;;;27.67;26.33;;;;;;;;8795010;40;9900;-56
2021/04/22 09:28:46;;;;;;;;;39.00;34.33;;;;;;;;8793342;40;9873;-58
2021/04/22 09:34:53;;;;;;;;;27.67;27.33;;;;;;;;8797751;40;9944;-59
2021/04/22 09:41:16;;;;;;;;;39.33;36.67;;;;;;;;8796324;40;9965;-59
2021/04/22 09:47:22;;;;;;;;;29.00;24.33;;;;;;;;8797691;40;9951;-60
2021/04/22 09:53:25;;;;;;;;;26.00;24.33;;;;;;;;8790985;40;10540;-58
2021/04/22 09:59:28;;;;;;;;;24.33;22.00;;;;;;;;8779398;40;9942;-59
2021/04/22 10:05:34;;;;;;;;;25.67;22.67;;;;;;;;8793973;40;9948;-57
2021/04/22 10:11:50;;;;;;;;;26.33;25.00;;;;;;;;8795163;40;10553;-59
2021/04/22 10:17:53;;;;;;;;;24.33;24.33;;;;;;;;8796238;40;9919;-58
2021/04/22 10:24:04;;;;;;;;;25.00;24.67;;;;;;;;8786950;40;10007;-56
2021/04/22 10:30:18;;;;;;;;;18.67;17.33;;;;;;;;8797501;40;9934;-56
2021/04/22 10:36:21;;;;;;;;;22.00;19.33;;;;;;;;8798692;40;9986;-55
2021/04/22 10:42:23;;;;;;;;;21.33;20.33;;;;;;;;8793274;40;9960;-57
2021/04/22 10:48:25;;;;;;;;;19.33;19.00;;;;;;;;8794725;40;10073;-58
2021/04/22 10:54:27;;;;;;;;;25.00;24.00;;;;;;;;8788984;40;9925;-56
2021/04/22 11:00:30;;;;;;;;;23.33;23.33;;;;;;;;8791893;40;9992;-57
2021/04/22 11:06:34;;;;;;;;;18.00;15.33;;;;;;;;8790461;40;9964;-56
2021/04/22 11:12:35;;;;;;;;;22.00;20.67;;;;;;;;8793305;40;10144;-58
2021/04/22 11:18:46;;;;;;;;;18.33;18.33;;;;;;;;8794627;40;9928;-57
2021/04/22 11:25:01;;;;;;;;;16.00;16.00;;;;;;;;8790724;40;9970;-57
2021/04/22 11:31:08;;;;;;;;;19.00;17.33;;;;;;;;8796754;40;9915;-56
2021/04/22 11:37:21;;;;;;;;;14.00;14.00;;;;;;;;8790088;40;10109;-58
2021/04/22 11:43:26;;;;;;;;;20.00;16.67;;;;;;;;8797282;40;10132;-57
2021/04/22 11:49:30;;;;;;;;;18.00;18.00;;;;;;;;8797909;40;10039;-57
2021/04/22 11:55:34;;;;;;;;;15.00;13.33;;;;;;;;8797193;40;9985;-57
2021/04/22 12:01:36;;;;;;;;;19.33;17.00;;;;;;;;8798494;40;9959;-58
2021/04/22 12:07:38;;;;;;;;;15.67;14.00;;;;;;;;8789024;40;10731;-59
2021/04/22 12:13:39;;;;;;;;;15.00;14.33;;;;;;;;8799699;40;10369;-57
2021/04/22 12:19:43;;;;;;;;;13.00;13.00;;;;;;;;8777246;40;10987;-57
2021/04/22 12:25:44;;;;;;;;;13.00;12.67;;;;;;;;8787158;40;10262;-57
2021/04/22 12:32:07;;;;;;;;;15.67;14.33;;;;;;;;8787835;40;9930;-57
2021/04/22 12:38:15;;;;;;;;;8.67;5.00;;;;;;;;8774275;40;10009;-57
2021/04/22 12:44:19;;;;;;;;;14.00;12.50;;;;;;;;8784332;40;11765;-57
2021/04/22 12:50:27;;;;;;;;;17.33;16.33;;;;;;;;8776229;40;9947;-57
2021/04/22 12:56:34;;;;;;;;;9.00;8.75;;;;;;;;8776002;40;10777;-57
2021/04/22 13:02:37;;;;;;;;;18.00;14.00;;;;;;;;8775633;40;10720;-55
2021/04/22 13:08:45;;;;;;;;;12.75;12.75;;;;;;;;8774270;40;10773;-55
2021/04/22 13:14:48;;;;;;;;;11.25;11.25;;;;;;;;8788102;40;10980;-55
2021/04/22 13:20:53;;;;;;;;;14.50;11.25;;;;;;;;8772954;40;10790;-54
2021/04/22 13:26:56;;;;;;;;;26.67;22.67;;;;;;;;8774983;40;11160;-59
2021/04/22 13:33:06;;;;;;;;;14.33;11.00;;;;;;;;8775192;40;10381;-56
2021/04/22 13:39:09;;;;;;;;;31.00;26.00;;;;;;;;8773445;40;9997;-55
2021/04/22 13:45:13;;;;;;;;;14.25;13.25;;;;;;;;8774598;40;10826;-56
2021/04/22 13:51:14;;;;;;;;;42.33;38.33;;;;;;;;8772992;40;9924;-57
2021/04/22 13:57:18;;;;;;;;;34.33;33.67;;;;;;;;8773896;40;9927;-58
2021/04/22 14:03:20;;;;;;;;;18.00;16.50;;;;;;;;8773721;40;10820;-58
2021/04/22 14:09:38;;;;;;;;;14.50;11.50;;;;;;;;7824648;40;10012231;-59
2021/04/22 14:15:40;;;;;;;;;19.50;17.25;;;;;;;;8762089;40;11374;-57
2021/04/22 14:21:42;;;;;;;;;23.00;21.67;;;;;;;;8753152;40;10168;-58
2021/04/22 14:27:44;;;;;;;;;21.33;19.33;;;;;;;;8754533;40;11875;-59
2021/04/22 14:33:45;;;;;;;;;24.33;21.67;;;;;;;;8749630;40;10674;-58
2021/04/22 14:39:48;;;;;;;;;18.67;16.33;;;;;;;;8748947;40;10674;-57
2021/04/22 14:45:49;;;;;;;;;18.67;16.67;;;;;;;;8751295;40;10440;-55
2021/04/22 14:51:51;;;;;;;;;24.67;22.33;;;;;;;;8744205;40;10053;-56
2021/04/22 14:57:52;;;;;;;;;22.50;22.50;;;;;;;;8752905;40;11525;-57
2021/04/22 15:03:54;;;;;;;;;13.00;13.00;;;;;;;;8751673;40;10845;-56
2021/04/22 15:09:56;;;;;;;;;22.33;19.33;;;;;;;;8751259;40;10869;-55
2021/04/22 15:15:57;;;;;;;;;22.50;19.50;;;;;;;;8752498;40;10999;-56
2021/04/22 15:21:59;;;;;;;;;18.25;17.75;;;;;;;;8750450;40;11008;-57
2021/04/22 15:28:00;;;;;;;;;30.67;25.67;;;;;;;;8751798;40;10206;-56
2021/04/22 15:34:03;;;;;;;;;18.67;18.67;;;;;;;;8752002;40;10305;-55
2021/04/22 15:40:07;;;;;;;;;21.33;18.67;;;;;;;;8752023;40;10227;-56
2021/04/22 15:46:08;;;;;;;;;19.67;19.67;;;;;;;;8757297;40;10973;-57
2021/04/22 15:52:10;;;;;;;;;18.00;18.00;;;;;;;;8750802;40;10254;-55
2021/04/22 15:58:13;;;;;;;;;19.33;18.33;;;;;;;;8759185;40;10671;-56
2021/04/22 16:04:15;;;;;;;;;21.67;19.00;;;;;;;;8774894;40;10012;-54
2021/04/22 16:10:17;;;;;;;;;20.67;18.67;;;;;;;;8776054;40;10366;-57
2021/04/22 16:16:18;;;;;;;;;21.33;18.00;;;;;;;;8775466;40;10475;-58
2021/04/22 16:22:20;;;;;;;;;20.67;18.33;;;;;;;;8775802;40;10667;-58
2021/04/22 16:28:22;;;;;;;;;15.33;15.33;;;;;;;;8775899;40;10354;-57
2021/04/22 16:34:26;;;;;;;;;20.67;20.67;;;;;;;;8774381;40;10210;-53
2021/04/22 16:40:27;;;;;;;;;22.00;19.33;;;;;;;;8773641;40;10063;-56
2021/04/22 16:46:29;;;;;;;;;14.00;14.00;;;;;;;;8775873;40;10667;-56
2021/04/22 16:52:30;;;;;;;;;18.00;16.33;;;;;;;;8773776;40;10110;-55
2021/04/22 16:58:32;;;;;;;;;23.33;21.00;;;;;;;;8775594;40;10161;-58
2021/04/22 17:04:49;;;;;;;;;23.33;20.67;;;;;;;;8773958;40;10146;-57
2021/04/22 17:10:50;;;;;;;;;25.00;22.67;;;;;;;;8774752;40;10695;-54
2021/04/22 17:16:52;;;;;;;;;23.00;20.67;;;;;;;;8774701;40;10012;-55
2021/04/22 17:22:53;;;;;;;;;20.00;20.00;;;;;;;;8774855;40;10303;-59
2021/04/22 17:28:55;;;;;;;;;19.33;19.00;;;;;;;;8774886;40;10051;-55
2021/04/22 17:34:56;;;;;;;;;26.33;25.33;;;;;;;;8774343;40;10044;-56
2021/04/22 17:40:58;;;;;;;;;29.00;27.33;;;;;;;;8773655;40;10272;-53
2021/04/22 17:47:02;;;;;;;;;28.33;27.33;;;;;;;;8773406;40;10160;-54
2021/04/22 17:53:04;;;;;;;;;32.00;30.67;;;;;;;;8774088;40;10667;-55
2021/04/22 17:59:06;;;;;;;;;29.33;29.33;;;;;;;;8774581;40;10031;-55
2021/04/22 18:05:08;;;;;;;;;34.33;32.00;;;;;;;;8774251;40;10866;-55
2021/04/22 18:11:09;;;;;;;;;34.67;31.33;;;;;;;;8772591;40;10170;-54
2021/04/22 18:17:10;;;;;;;;;33.00;32.00;;;;;;;;8773386;40;10092;-54
2021/04/22 18:23:12;;;;;;;;;37.00;32.75;;;;;;;;8771368;40;10828;-56
2021/04/22 18:29:30;;;;;;;;;31.67;30.67;;;;;;;;8773455;40;10350;-57
2021/04/22 18:35:32;;;;;;;;;37.50;32.25;;;;;;;;8774232;40;10909;-54
2021/04/22 18:41:35;;;;;;;;;38.00;34.50;;;;;;;;8747905;40;10770;-60
2021/04/22 18:47:36;;;;;;;;;39.50;34.50;;;;;;;;8749867;40;10732;-55
2021/04/22 18:53:38;;;;;;;;;39.50;35.50;;;;;;;;8747690;40;10556;-53
2021/04/22 18:59:39;;;;;;;;;44.00;39.33;;;;;;;;8751847;40;10127;-54
2021/04/22 19:05:41;;;;;;;;;33.00;33.00;;;;;;;;8752446;40;10514;-54
2021/04/22 19:11:44;;;;;;;;;37.50;34.00;;;;;;;;8752383;40;10841;-54
2021/04/22 19:17:47;;;;;;;;;28.67;28.33;;;;;;;;8753369;40;10129;-53
2021/04/22 19:23:48;;;;;;;;;28.00;26.67;;;;;;;;8752233;40;10248;-57
2021/04/22 19:29:50;;;;;;;;;30.00;28.00;;;;;;;;8751881;40;10128;-54
2021/04/22 19:35:51;;;;;;;;;39.00;35.33;;;;;;;;8751595;40;10185;-53
2021/04/22 19:41:53;;;;;;;;;32.33;30.67;;;;;;;;8750809;40;10169;-52
2021/04/22 19:47:54;;;;;;;;;28.00;27.33;;;;;;;;8751829;40;10268;-57
2021/04/22 19:53:58;;;;;;;;;36.67;30.00;;;;;;;;8750834;40;10126;-57
2021/04/22 20:00:00;;;;;;;;;27.33;27.33;;;;;;;;8751975;40;10143;-58
2021/04/22 20:06:05;;;;;;;;;27.33;25.00;;;;;;;;8752060;40;10125;-53
2021/04/22 20:12:07;;;;;;;;;34.33;32.67;;;;;;;;8766928;40;10261;-54
2021/04/22 20:18:09;;;;;;;;;31.33;28.33;;;;;;;;8775579;40;10065;-54
2021/04/22 20:24:12;;;;;;;;;31.00;28.33;;;;;;;;8775316;40;10341;-51
2021/04/22 20:30:16;;;;;;;;;35.00;33.00;;;;;;;;8775435;40;10107;-53
2021/04/22 20:36:18;;;;;;;;;30.00;27.33;;;;;;;;8775682;40;10221;-52
2021/04/22 20:42:19;;;;;;;;;28.33;26.33;;;;;;;;8775280;40;10087;-56
2021/04/22 20:48:22;;;;;;;;;21.00;21.00;;;;;;;;8775558;40;10075;-53
2021/04/22 20:54:24;;;;;;;;;22.00;21.00;;;;;;;;8774189;40;9994;-52
2021/04/22 21:00:27;;;;;;;;;20.67;20.67;;;;;;;;8776103;40;10728;-57
2021/04/22 21:06:29;;;;;;;;;22.00;21.33;;;;;;;;8773538;40;10642;-53
2021/04/22 21:12:30;;;;;;;;;21.33;20.00;;;;;;;;8773841;40;10049;-54
2021/04/22 21:18:32;;;;;;;;;23.33;23.00;;;;;;;;8775029;40;10126;-55
2021/04/22 21:24:33;;;;;;;;;23.67;19.67;;;;;;;;8772939;40;10055;-53
2021/04/22 21:30:35;;;;;;;;;26.00;24.33;;;;;;;;8774261;40;10100;-54
2021/04/22 21:36:37;;;;;;;;;24.33;24.00;;;;;;;;8773637;40;10040;-53
2021/04/22 21:42:38;;;;;;;;;23.67;23.33;;;;;;;;8773756;40;10103;-53
2021/04/22 21:48:40;;;;;;;;;26.00;20.33;;;;;;;;8772603;40;10100;-53
2021/04/22 21:54:43;;;;;;;;;24.67;19.00;;;;;;;;8772748;40;10074;-52
2021/04/22 22:00:45;;;;;;;;;20.67;20.00;;;;;;;;8774771;40;10141;-53
2021/04/22 22:06:52;;;;;;;;;20.33;20.33;;;;;;;;8774224;40;10564;-54
2021/04/22 22:12:53;;;;;;;;;25.33;23.00;;;;;;;;8772211;40;10115;-54
2021/04/22 22:18:55;;;;;;;;;22.33;22.33;;;;;;;;8773112;40;10226;-50
2021/04/22 22:24:56;;;;;;;;;23.33;22.00;;;;;;;;8771007;40;10119;-54
2021/04/22 22:30:59;;;;;;;;;29.33;28.67;;;;;;;;8773390;40;10036;-57
2021/04/22 22:37:01;;;;;;;;;23.33;19.00;;;;;;;;8775240;40;10072;-54
2021/04/22 22:43:04;;;;;;;;;26.00;24.00;;;;;;;;8776371;40;10107;-53
2021/04/22 22:49:06;;;;;;;;;24.00;23.33;;;;;;;;8778137;40;10092;-56
2021/04/22 22:55:11;;;;;;;;;25.33;25.33;;;;;;;;8777052;40;10060;-53
2021/04/22 23:01:12;;;;;;;;;30.67;28.00;;;;;;;;8776538;40;10116;-52
2021/04/22 23:07:14;;;;;;;;;26.33;25.67;;;;;;;;8777018;40;10157;-53
2021/04/22 23:13:16;;;;;;;;;31.33;30.00;;;;;;;;8776873;40;10206;-53
2021/04/22 23:19:18;;;;;;;;;35.00;30.33;;;;;;;;8774682;40;10622;-53
2021/04/22 23:25:22;;;;;;;;;30.67;28.67;;;;;;;;8775378;40;10077;-51
2021/04/22 23:31:24;;;;;;;;;31.33;25.33;;;;;;;;8776884;40;10545;-54
2021/04/22 23:37:25;;;;;;;;;25.00;23.00;;;;;;;;8775358;40;10112;-53
2021/04/22 23:43:28;;;;;;;;;28.00;26.33;;;;;;;;8774801;40;10096;-52
2021/04/22 23:49:30;;;;;;;;;28.00;24.33;;;;;;;;8776206;40;10040;-53
2021/04/22 23:55:34;;;;;;;;;23.67;22.00;;;;;;;;8775078;40;10639;-54
